GLO2102 SBSV-SBPS
Flight info
| Callsign | GLO2102 |
|---|---|
| Flight time | 0h 41m |
| Altitude | 30000 |
| Route | OSENI DCT RAIRA |
| Aircraft | B38M/M-SDFGHIJ4J5KLORWXY/LB1 |
Departure
| Time | 2026-04-28 06:25 |
|---|---|
| Airport | Deputado Luiz Eduardo Magalhães International Airport (SBSV) |
Arrival
| Time | 2026-04-28 07:06 |
|---|---|
| Airport | Porto Seguro International Airport (SBPS) |
| Time | Latitude | Longitude | Altitude | Speed | Heading |
|---|---|---|---|---|---|
| 2026-04-28 06:11 | -12.91391 | -38.33208 | 46 ft | 0 kts | 277° |
| 2026-04-28 06:17 | -12.91395 | -38.33187 | 46 ft | 4 kts | 285° |
| 2026-04-28 06:18 | -12.91423 | -38.33143 | 43 ft | 4 kts | 335° |
| 2026-04-28 06:18 | -12.91435 | -38.33139 | 44 ft | 1 kts | 349° |
| 2026-04-28 06:18 | -12.91437 | -38.33139 | 44 ft | 0 kts | 349° |
| 2026-04-28 06:20 | -12.91436 | -38.33139 | 44 ft | 0 kts | 349° |
| 2026-04-28 06:20 | -12.91420 | -38.33142 | 43 ft | 5 kts | 349° |
| 2026-04-28 06:21 | -12.91371 | -38.33152 | 46 ft | 9 kts | 348° |
| 2026-04-28 06:21 | -12.91311 | -38.33165 | 43 ft | 9 kts | 349° |
| 2026-04-28 06:21 | -12.91252 | -38.33177 | 46 ft | 9 kts | 348° |
| 2026-04-28 06:21 | -12.91211 | -38.33209 | 46 ft | 7 kts | 280° |
| 2026-04-28 06:22 | -12.91218 | -38.33262 | 44 ft | 8 kts | 259° |
| 2026-04-28 06:22 | -12.91221 | -38.33324 | 46 ft | 8 kts | 284° |
| 2026-04-28 06:22 | -12.91199 | -38.33373 | 43 ft | 8 kts | 297° |
| 2026-04-28 06:22 | -12.91167 | -38.33429 | 46 ft | 10 kts | 309° |
| 2026-04-28 06:23 | -12.91115 | -38.33473 | 46 ft | 6 kts | 357° |
| 2026-04-28 06:23 | -12.91097 | -38.33450 | 46 ft | 3 kts | 78° |
| 2026-04-28 06:23 | -12.91096 | -38.33449 | 46 ft | 0 kts | 79° |
| 2026-04-28 06:24 | -12.91093 | -38.33429 | 45 ft | 13 kts | 79° |
| 2026-04-28 06:24 | -12.91022 | -38.33076 | 49 ft | 86 kts | 78° |
| 2026-04-28 06:24 | -12.90857 | -38.32259 | 54 ft | 146 kts | 78° |
| 2026-04-28 06:24 | -12.90617 | -38.31094 | 255 ft | 177 kts | 79° |
| 2026-04-28 06:25 | -12.90381 | -38.29861 | 1014 ft | 177 kts | 80° |
| 2026-04-28 06:25 | -12.90143 | -38.28635 | 1819 ft | 173 kts | 80° |
| 2026-04-28 06:25 | -12.90082 | -38.27350 | 2234 ft | 193 kts | 104° |
| 2026-04-28 06:25 | -12.90794 | -38.26121 | 2594 ft | 214 kts | 139° |
| 2026-04-28 06:26 | -12.92173 | -38.25481 | 3037 ft | 233 kts | 169° |
| 2026-04-28 06:26 | -12.93854 | -38.25166 | 3490 ft | 252 kts | 167° |
| 2026-04-28 06:26 | -12.95624 | -38.24788 | 4061 ft | 263 kts | 167° |
| 2026-04-28 06:26 | -12.97389 | -38.24412 | 4892 ft | 264 kts | 167° |
| 2026-04-28 06:27 | -12.99209 | -38.24021 | 5635 ft | 269 kts | 167° |
| 2026-04-28 06:27 | -13.01046 | -38.23624 | 6420 ft | 271 kts | 167° |
| 2026-04-28 06:27 | -13.02910 | -38.23222 | 7123 ft | 275 kts | 167° |
| 2026-04-28 06:27 | -13.04798 | -38.22815 | 7837 ft | 278 kts | 167° |
| 2026-04-28 06:28 | -13.06708 | -38.22403 | 8535 ft | 283 kts | 167° |
| 2026-04-28 06:28 | -13.08649 | -38.21985 | 9214 ft | 288 kts | 168° |
| 2026-04-28 06:28 | -13.10631 | -38.21557 | 9857 ft | 294 kts | 168° |
| 2026-04-28 06:28 | -13.12659 | -38.21122 | 10374 ft | 304 kts | 169° |
| 2026-04-28 06:29 | -13.14819 | -38.21105 | 10608 ft | 323 kts | 192° |
| 2026-04-28 06:29 | -13.17009 | -38.21805 | 10909 ft | 338 kts | 198° |
| 2026-04-28 06:29 | -13.19268 | -38.22567 | 11429 ft | 343 kts | 198° |
| 2026-04-28 06:29 | -13.21539 | -38.23343 | 12078 ft | 346 kts | 198° |
| 2026-04-28 06:30 | -13.23835 | -38.24134 | 12728 ft | 350 kts | 198° |
| 2026-04-28 06:30 | -13.26156 | -38.24937 | 13384 ft | 354 kts | 198° |
| 2026-04-28 06:30 | -13.28512 | -38.25753 | 14008 ft | 360 kts | 197° |
| 2026-04-28 06:30 | -13.30895 | -38.26580 | 14628 ft | 362 kts | 197° |
| 2026-04-28 06:31 | -13.33292 | -38.27411 | 15291 ft | 364 kts | 197° |
| 2026-04-28 06:31 | -13.35701 | -38.28246 | 15903 ft | 368 kts | 197° |
| 2026-04-28 06:31 | -13.38102 | -38.29079 | 16497 ft | 371 kts | 197° |
| 2026-04-28 06:31 | -13.40555 | -38.29931 | 17084 ft | 374 kts | 196° |
| 2026-04-28 06:32 | -13.43028 | -38.30789 | 17662 ft | 377 kts | 196° |
| 2026-04-28 06:32 | -13.45531 | -38.31658 | 18225 ft | 380 kts | 195° |
| 2026-04-28 06:32 | -13.48053 | -38.32535 | 18709 ft | 383 kts | 195° |
| 2026-04-28 06:32 | -13.50593 | -38.33418 | 19162 ft | 387 kts | 195° |
| 2026-04-28 06:33 | -13.53148 | -38.34306 | 19604 ft | 390 kts | 195° |
| 2026-04-28 06:33 | -13.55737 | -38.35206 | 20053 ft | 393 kts | 196° |
| 2026-04-28 06:33 | -13.58295 | -38.36096 | 20488 ft | 396 kts | 196° |
| 2026-04-28 06:33 | -13.60881 | -38.36995 | 20918 ft | 400 kts | 196° |
| 2026-04-28 06:34 | -13.63475 | -38.37897 | 21351 ft | 403 kts | 196° |
| 2026-04-28 06:34 | -13.66142 | -38.38825 | 21786 ft | 406 kts | 196° |
| 2026-04-28 06:34 | -13.68836 | -38.39762 | 22220 ft | 410 kts | 196° |
| 2026-04-28 06:34 | -13.71546 | -38.40706 | 22657 ft | 413 kts | 196° |
| 2026-04-28 06:35 | -13.74245 | -38.41645 | 23086 ft | 417 kts | 196° |
| 2026-04-28 06:35 | -13.77037 | -38.42618 | 23528 ft | 420 kts | 196° |
| 2026-04-28 06:35 | -13.79786 | -38.43576 | 23890 ft | 423 kts | 197° |
| 2026-04-28 06:35 | -13.82580 | -38.44549 | 24290 ft | 425 kts | 197° |
| 2026-04-28 06:36 | -13.85378 | -38.45524 | 24701 ft | 427 kts | 197° |
| 2026-04-28 06:36 | -13.88192 | -38.46505 | 25099 ft | 429 kts | 197° |
| 2026-04-28 06:36 | -13.91025 | -38.47494 | 25497 ft | 430 kts | 197° |
| 2026-04-28 06:36 | -13.93846 | -38.48510 | 25888 ft | 432 kts | 198° |
| 2026-04-28 06:37 | -13.96707 | -38.49543 | 26293 ft | 434 kts | 198° |
| 2026-04-28 06:37 | -13.99564 | -38.50572 | 26693 ft | 436 kts | 198° |
| 2026-04-28 06:37 | -14.02432 | -38.51606 | 27076 ft | 438 kts | 198° |
| 2026-04-28 06:37 | -14.05310 | -38.52643 | 27454 ft | 440 kts | 198° |
| 2026-04-28 06:38 | -14.08209 | -38.53688 | 27818 ft | 442 kts | 198° |
| 2026-04-28 06:38 | -14.10123 | -38.54379 | 28061 ft | 443 kts | 198° |
| 2026-04-28 06:38 | -14.13045 | -38.55432 | 28430 ft | 445 kts | 198° |
| 2026-04-28 06:38 | -14.15979 | -38.56491 | 28792 ft | 447 kts | 198° |
| 2026-04-28 06:39 | -14.19880 | -38.57898 | 29241 ft | 450 kts | 198° |
| 2026-04-28 06:39 | -14.21881 | -38.58621 | 29490 ft | 450 kts | 198° |
| 2026-04-28 06:39 | -14.24802 | -38.59676 | 29849 ft | 452 kts | 199° |
| 2026-04-28 06:39 | -14.27794 | -38.60756 | 30038 ft | 456 kts | 199° |
| 2026-04-28 06:40 | -14.30814 | -38.61847 | 30019 ft | 463 kts | 199° |
| 2026-04-28 06:40 | -14.36893 | -38.64044 | 30028 ft | 464 kts | 199° |
| 2026-04-28 06:41 | -14.42983 | -38.66247 | 30027 ft | 463 kts | 199° |
| 2026-04-28 06:41 | -14.49088 | -38.68455 | 30026 ft | 465 kts | 199° |
| 2026-04-28 06:42 | -14.55152 | -38.70651 | 30026 ft | 465 kts | 199° |
| 2026-04-28 06:42 | -14.61249 | -38.72859 | 30031 ft | 465 kts | 199° |
| 2026-04-28 06:43 | -14.67346 | -38.75070 | 30031 ft | 464 kts | 199° |
| 2026-04-28 06:43 | -14.73455 | -38.77285 | 30032 ft | 464 kts | 199° |
| 2026-04-28 06:43 | -14.76477 | -38.78382 | 29919 ft | 454 kts | 199° |
| 2026-04-28 06:44 | -14.79437 | -38.79456 | 29363 ft | 449 kts | 199° |
| 2026-04-28 06:44 | -14.82377 | -38.80523 | 28623 ft | 450 kts | 199° |
| 2026-04-28 06:44 | -14.85297 | -38.81584 | 28049 ft | 448 kts | 199° |
| 2026-04-28 06:44 | -14.88235 | -38.82651 | 27506 ft | 445 kts | 199° |
| 2026-04-28 06:45 | -14.91143 | -38.83708 | 26971 ft | 442 kts | 198° |
| 2026-04-28 06:45 | -14.94041 | -38.84761 | 26437 ft | 440 kts | 198° |
| 2026-04-28 06:45 | -14.96919 | -38.85807 | 25899 ft | 438 kts | 198° |
| 2026-04-28 06:45 | -14.99796 | -38.86853 | 25372 ft | 437 kts | 198° |
| 2026-04-28 06:46 | -15.02663 | -38.87896 | 24846 ft | 436 kts | 198° |
| 2026-04-28 06:46 | -15.05511 | -38.88933 | 24324 ft | 435 kts | 198° |
| 2026-04-28 06:46 | -15.08363 | -38.89971 | 23808 ft | 434 kts | 198° |
| 2026-04-28 06:46 | -15.11218 | -38.91011 | 23227 ft | 434 kts | 198° |
| 2026-04-28 06:47 | -15.14059 | -38.92045 | 22687 ft | 431 kts | 198° |
| 2026-04-28 06:47 | -15.16886 | -38.93075 | 22183 ft | 428 kts | 198° |
| 2026-04-28 06:47 | -15.19656 | -38.94084 | 21702 ft | 425 kts | 198° |
| 2026-04-28 06:47 | -15.22437 | -38.95098 | 21215 ft | 422 kts | 198° |
| 2026-04-28 06:48 | -15.25200 | -38.96105 | 20752 ft | 419 kts | 198° |
| 2026-04-28 06:48 | -15.27935 | -38.97103 | 20280 ft | 416 kts | 198° |
| 2026-04-28 06:48 | -15.30664 | -38.98098 | 19823 ft | 414 kts | 198° |
| 2026-04-28 06:48 | -15.33366 | -38.99085 | 19365 ft | 411 kts | 197° |
| 2026-04-28 06:49 | -15.36058 | -39.00067 | 18923 ft | 408 kts | 197° |
| 2026-04-28 06:49 | -15.38728 | -39.01042 | 18486 ft | 406 kts | 197° |
| 2026-04-28 06:49 | -15.41390 | -39.02015 | 17999 ft | 403 kts | 197° |
| 2026-04-28 06:49 | -15.44030 | -39.02979 | 17537 ft | 400 kts | 198° |
| 2026-04-28 06:50 | -15.46649 | -39.03936 | 17105 ft | 397 kts | 198° |
| 2026-04-28 06:50 | -15.49212 | -39.04873 | 16681 ft | 393 kts | 198° |
| 2026-04-28 06:50 | -15.51772 | -39.05809 | 16254 ft | 390 kts | 198° |
| 2026-04-28 06:50 | -15.54326 | -39.06742 | 15836 ft | 388 kts | 198° |
| 2026-04-28 06:51 | -15.56862 | -39.07670 | 15420 ft | 385 kts | 198° |
| 2026-04-28 06:51 | -15.59389 | -39.08595 | 15000 ft | 383 kts | 198° |
| 2026-04-28 06:51 | -15.61902 | -39.09514 | 14582 ft | 381 kts | 198° |
| 2026-04-28 06:51 | -15.64443 | -39.10286 | 14110 ft | 379 kts | 193° |
| 2026-04-28 06:52 | -15.66962 | -39.10968 | 13693 ft | 377 kts | 193° |
| 2026-04-28 06:52 | -15.69499 | -39.11670 | 13273 ft | 374 kts | 193° |
| 2026-04-28 06:52 | -15.72010 | -39.12371 | 12865 ft | 371 kts | 193° |
| 2026-04-28 06:52 | -15.74489 | -39.13067 | 12455 ft | 368 kts | 193° |
| 2026-04-28 06:53 | -15.76958 | -39.13760 | 12051 ft | 365 kts | 193° |
| 2026-04-28 06:53 | -15.79372 | -39.14439 | 11656 ft | 363 kts | 193° |
| 2026-04-28 06:53 | -15.81805 | -39.15124 | 11255 ft | 360 kts | 193° |
| 2026-04-28 06:53 | -15.84212 | -39.15802 | 10881 ft | 357 kts | 193° |
| 2026-04-28 06:54 | -15.86583 | -39.16469 | 10703 ft | 347 kts | 193° |
| 2026-04-28 06:54 | -15.88887 | -39.17118 | 10548 ft | 337 kts | 193° |
| 2026-04-28 06:54 | -15.91124 | -39.17748 | 10390 ft | 328 kts | 193° |
| 2026-04-28 06:54 | -15.93295 | -39.18360 | 10237 ft | 319 kts | 193° |
| 2026-04-28 06:55 | -15.95409 | -39.18956 | 10078 ft | 311 kts | 193° |
| 2026-04-28 06:55 | -15.97487 | -39.19541 | 9777 ft | 308 kts | 193° |
| 2026-04-28 06:55 | -15.99546 | -39.20122 | 9402 ft | 308 kts | 193° |
| 2026-04-28 06:55 | -16.01608 | -39.20703 | 9058 ft | 306 kts | 193° |
| 2026-04-28 06:56 | -16.03654 | -39.21281 | 8734 ft | 304 kts | 193° |
| 2026-04-28 06:56 | -16.05687 | -39.21854 | 8412 ft | 301 kts | 193° |
| 2026-04-28 06:56 | -16.07702 | -39.22423 | 8095 ft | 299 kts | 193° |
| 2026-04-28 06:56 | -16.09687 | -39.22983 | 7782 ft | 297 kts | 194° |
| 2026-04-28 06:57 | -16.11676 | -39.23545 | 7462 ft | 296 kts | 194° |
| 2026-04-28 06:57 | -16.13659 | -39.24104 | 7149 ft | 294 kts | 194° |
| 2026-04-28 06:57 | -16.15632 | -39.24661 | 6834 ft | 293 kts | 194° |
| 2026-04-28 06:57 | -16.17592 | -39.25215 | 6509 ft | 291 kts | 194° |
| 2026-04-28 06:58 | -16.19543 | -39.25766 | 6176 ft | 290 kts | 194° |
| 2026-04-28 06:58 | -16.21485 | -39.26312 | 5880 ft | 288 kts | 194° |
| 2026-04-28 06:58 | -16.23393 | -39.26849 | 5664 ft | 282 kts | 194° |
| 2026-04-28 06:58 | -16.25256 | -39.27373 | 5468 ft | 276 kts | 193° |
| 2026-04-28 06:59 | -16.27095 | -39.27891 | 5265 ft | 271 kts | 193° |
| 2026-04-28 06:59 | -16.28897 | -39.28398 | 5065 ft | 266 kts | 193° |
| 2026-04-28 06:59 | -16.30668 | -39.28897 | 4863 ft | 261 kts | 193° |
| 2026-04-28 06:59 | -16.32383 | -39.29380 | 4662 ft | 256 kts | 193° |
| 2026-04-28 07:00 | -16.34086 | -39.29860 | 4465 ft | 251 kts | 193° |
| 2026-04-28 07:00 | -16.35758 | -39.30331 | 4266 ft | 246 kts | 193° |
| 2026-04-28 07:00 | -16.37397 | -39.30793 | 4105 ft | 240 kts | 193° |
| 2026-04-28 07:00 | -16.38974 | -39.31230 | 4053 ft | 230 kts | 190° |
| 2026-04-28 07:01 | -16.40533 | -39.31177 | 3979 ft | 224 kts | 158° |
| 2026-04-28 07:01 | -16.41866 | -39.30413 | 3808 ft | 219 kts | 143° |
| 2026-04-28 07:01 | -16.43121 | -39.29531 | 3608 ft | 216 kts | 143° |
| 2026-04-28 07:01 | -16.44363 | -39.28643 | 3343 ft | 216 kts | 143° |
| 2026-04-28 07:02 | -16.45594 | -39.27753 | 3112 ft | 214 kts | 142° |
| 2026-04-28 07:02 | -16.46801 | -39.26872 | 2910 ft | 210 kts | 142° |
| 2026-04-28 07:02 | -16.47834 | -39.25856 | 2692 ft | 202 kts | 116° |
| 2026-04-28 07:02 | -16.48106 | -39.24480 | 2491 ft | 192 kts | 81° |
| 2026-04-28 07:03 | -16.47821 | -39.23143 | 2353 ft | 190 kts | 75° |
| 2026-04-28 07:03 | -16.47489 | -39.21801 | 2264 ft | 191 kts | 74° |
| 2026-04-28 07:03 | -16.47153 | -39.20478 | 2136 ft | 191 kts | 73° |
| 2026-04-28 07:03 | -16.46807 | -39.19144 | 1994 ft | 191 kts | 73° |
| 2026-04-28 07:04 | -16.46456 | -39.17809 | 1869 ft | 190 kts | 73° |
| 2026-04-28 07:04 | -16.46107 | -39.16492 | 1740 ft | 185 kts | 73° |
| 2026-04-28 07:04 | -16.45769 | -39.15222 | 1509 ft | 175 kts | 73° |
| 2026-04-28 07:04 | -16.45463 | -39.14076 | 1326 ft | 153 kts | 72° |
| 2026-04-28 07:05 | -16.45194 | -39.13071 | 1107 ft | 143 kts | 73° |
| 2026-04-28 07:05 | -16.44924 | -39.12066 | 875 ft | 144 kts | 73° |
| 2026-04-28 07:05 | -16.44655 | -39.11068 | 660 ft | 142 kts | 73° |
| 2026-04-28 07:05 | -16.44379 | -39.10066 | 422 ft | 146 kts | 73° |
| 2026-04-28 07:06 | -16.44107 | -39.09045 | 231 ft | 148 kts | 74° |
| 2026-04-28 07:06 | -16.43846 | -39.08069 | 162 ft | 116 kts | 75° |
| 2026-04-28 07:06 | -16.43694 | -39.07506 | 165 ft | 49 kts | 75° |
| 2026-04-28 07:06 | -16.43636 | -39.07276 | 164 ft | 22 kts | 88° |
| 2026-04-28 07:07 | -16.43641 | -39.07200 | 162 ft | 5 kts | 36° |
| 2026-04-28 07:07 | -16.43625 | -39.07203 | 162 ft | 1 kts | 308° |
| 2026-04-28 07:07 | -16.43624 | -39.07233 | 163 ft | 10 kts | 264° |
| 2026-04-28 07:07 | -16.43656 | -39.07359 | 165 ft | 25 kts | 255° |
| 2026-04-28 07:08 | -16.43710 | -39.07560 | 165 ft | 29 kts | 254° |
| 2026-04-28 07:08 | -16.43764 | -39.07762 | 164 ft | 29 kts | 254° |
| 2026-04-28 07:08 | -16.43817 | -39.07962 | 162 ft | 28 kts | 254° |
| 2026-04-28 07:08 | -16.43867 | -39.08128 | 162 ft | 17 kts | 230° |
| 2026-04-28 07:09 | -16.43930 | -39.08133 | 162 ft | 9 kts | 164° |
| 2026-04-28 07:09 | -16.43984 | -39.08116 | 162 ft | 7 kts | 164° |
| 2026-04-28 07:09 | -16.44024 | -39.08132 | 162 ft | 5 kts | 226° |
| 2026-04-28 07:09 | -16.44052 | -39.08134 | 162 ft | 2 kts | 164° |
| 2026-04-28 07:10 | -16.44072 | -39.08129 | 162 ft | 0 kts | 165° |